Lone Star Executive Airport
KCXO : rendu visible

Aérodrome :











RETROUVEZ-NOUS SUR...

 
LOGIN :

S'inscrire | Disclaimer

   EN    FR    IT 

 









Légende :    VFR   VFR Marginal   IFR   IFR Intensif   IFR Très Intensif
Visi : 
Plafond : 
>= 8 km
>= 3000ft
5 à 8 km
1000 à 3000 ft
1500m à 5 km
500 à 1000 ft
800 à 1500m
200 à 500 ft
< 800m
< 200 ft
Symboles :   Orages  Brouillard  Fortes neiges  Fortes précipitations  Vent > 20 kt






- Altitude de l'aérodrome : 245 ft


KCXO - Lone Star Executive

DERNIER METAR :
  • 011453Z 14011KT 10SM CLR 16/10 A3006 RMK AO2 SLP178 T01610100 53014

METARs EXPIRÉS :
  • 011353Z 15006KT 10SM CLR 13/11 A3005 RMK AO2 SLP175 T01330111
  • 011253Z 10004KT 10SM CLR 10/09 A3002 RMK AO2 SLP166 T01000089
  • 011153Z 00000KT 10SM CLR 08/07 A3002 RMK AO2 SLP165 T00830072 10106 20072 53002

TAF KCXO
Valide du 01 à 12h jusqu'au 02 à 12h UTC


011120Z 0112/0212 10004KT P6SM SCT250
FM011600 14010KT P6SM BKN250
FM020900 VRB03KT P6SM SCT025 BKN250



MET'MAP, la Météo Aéronautique d'un coup d'oeil ! - Copyright ORBIFLY Décembre 2007 - Disclaimer

ORBIFLY MET'MAP TEAM :

Programmation & Développement : Alexandra Zaïnal
Sur une idée originale de : Baudouin d'Aumeries
Assistance à la programmation : Marc-Olivier Méhu
Soutien technique & logistique : Manuel Goepfert

Contact : metmap@orbifly.com




SOURCES & CREDITS :

   NOAA       Earth
Advisory